BDN - Bend Muni

Pirep is a free, collaborative database of all public and private airports located within the United States. All pilots are welcome to contribute, edit, and improve any airport they have local knowledge about, no registration required.
Uploaded photos will be licensed under a CC BY-SA 4.0 license. Please only upload photos you have the rights to use.
Tags
Public
Webcam
Food
METAR / TAF
Flying Clubs
Edit Tags
Camping
Lodging
Car Rental
Bicycles
Swimming
Golfing
Fishing
Hot Springs
Museum
Airpark
Upcoming Events
No upcoming events. Is anything happening here soon?
*
*
*

Where exactly on/near the airport is this event taking place?

Is there a webpage with more information for this event?

Who should be contacted for more information?

What is this event all about?

Repeat every
Description
Last updated: 2023-11-24 18:25:49 PST
Transient Parking
Fuel Location
Last updated: 2023-10-16 20:54:11 PDT
Landing & Tie-down Fees
Crew Car Availability
Flying Clubs
Last updated: 2024-01-08 21:03:12 PST
WiFi Access
Airport Statistics
Location: Bend, OR
Elevation: 3,459ft
Sectional: Klamath Falls
Activation date: Jun 1942
Fuel: 100LL, A (prices)
Runway 16/34: 5,201ft
Access: Open to the public
Current Weather — VFR
  • Weather data is strictly informational and not for flight planning purposes.
  • METAR
    2024-05-30 02:15:00 PDT
    Ceiling Wind Temperature Dewpoint Weather Visbility
    Sky clear 200° @ 3kt 37°F 30°F N/A 10SM
    Raw: KBDN 300915Z AUTO 20003KT 10SM CLR 03/M01 A3031 RMK AO2
  • TAF
    2024-05-29 23:00:00 PDT – 2024-05-30 12:00:00 PDT
    Ceiling Wind Weather Visbility
    5,000ft Variable Smoke 6SM
    Clouds: Broken @ 5,000ft
    Raw: KBDN 300520Z 3006/3106 VRB05KT 6SM FU BKN050 FM301900 36008KT P6SM SKC TEMPO 3021/3101 36008G16KT
  • TAF
    2024-05-30 12:00:00 PDT – 2024-05-30 23:00:00 PDT
    Ceiling Wind Weather Visbility
    Sky clear 360° @ 8kt N/A 6SM
    Clouds: @ ft
    Raw: KBDN 300520Z 3006/3106 VRB05KT 6SM FU BKN050 FM301900 36008KT P6SM SKC TEMPO 3021/3101 36008G16KT
  • TAF
    2024-05-30 14:00:00 PDT – 2024-05-30 18:00:00 PDT
    Ceiling Wind Weather Visbility
    Sky clear 360° @ 8kt, gusts 16kt N/A SM
    Raw: KBDN 300520Z 3006/3106 VRB05KT 6SM FU BKN050 FM301900 36008KT P6SM SKC TEMPO 3021/3101 36008G16KT
Click/tap to add an annotation marker to the map
Airport Webcams
Direct links to live image URLs will be displayed inline on this page. URLs to separate webpages will be linked to.
URL:
Remarks
  • Existed prior to 1959.
  • Both twys parallel to ry 16/34 mkd by reflectors.
  • Calm wind rwy is rwy 16
  • Noise abatement procedures in effect, call fbo at (541) 388-0019
  • Be aware, intense helicopter training continually in progress.
  • Extensive geese activity reported on and near arpt year around. deer and other wildlife may be present.
  • Apron areas may be heavily congested at times with svc vehicles, pedestrian and automobile tfc.
  • Taxilanes and apron are nstd. acft may require wing walkers, parking guidance and/or tugging at pilot discretion to insure acft clearance from obstacles.
Comments
Leave a comment What was your experience like at this airport?